createdAt,value
2018-03-21T00:00:56.521Z,5.93
2018-03-21T00:05:39.957Z,3.83
2018-03-21T00:10:23.283Z,4.90
2018-03-21T00:15:06.726Z,4.60
2018-03-21T00:19:50.140Z,5.63
2018-03-21T00:24:33.511Z,5.83
2018-03-21T00:29:17.149Z,6.40
2018-03-21T00:34:00.535Z,6.50
2018-03-21T00:38:43.860Z,5.73
2018-03-21T00:43:27.226Z,3.77
2018-03-21T00:48:10.545Z,6.13
2018-03-21T00:52:53.896Z,3.70
2018-03-21T00:57:37.303Z,8.30
2018-03-21T01:02:20.713Z,4.33
2018-03-21T01:07:04.024Z,6.90
2018-03-21T01:11:48.873Z,6.10
2018-03-21T01:16:33.259Z,4.17
2018-03-21T01:21:16.642Z,5.80
2018-03-21T01:25:59.973Z,5.37
2018-03-21T01:30:43.412Z,6.40
2018-03-21T01:35:26.781Z,6.00
2018-03-21T01:40:10.145Z,7.53
2018-03-21T01:44:54.292Z,6.60
2018-03-21T01:49:37.720Z,5.43
2018-03-21T01:54:21.155Z,4.67
2018-03-21T01:59:04.438Z,5.07
2018-03-21T02:03:47.980Z,4.10
2018-03-21T02:08:31.352Z,7.17
2018-03-21T02:13:14.700Z,5.33
2018-03-21T02:17:58.158Z,7.53
2018-03-21T02:22:41.459Z,6.60
2018-03-21T02:27:24.818Z,6.67
2018-03-21T02:32:08.124Z,5.53
2018-03-21T02:36:52.263Z,9.43
2018-03-21T02:41:35.658Z,8.97
2018-03-21T02:46:19.023Z,7.33
2018-03-21T02:51:02.341Z,7.83
2018-03-21T02:55:45.738Z,6.60
2018-03-21T03:00:29.943Z,5.67
2018-03-21T03:05:13.348Z,5.93
2018-03-21T03:09:56.730Z,6.93
2018-03-21T03:14:40.216Z,8.07
2018-03-21T03:19:23.555Z,6.67
2018-03-21T03:24:06.955Z,9.30
2018-03-21T03:28:50.302Z,8.40
2018-03-21T03:33:33.637Z,7.23
2018-03-21T03:38:16.991Z,6.80
2018-03-21T03:43:00.326Z,7.83
2018-03-21T03:47:43.718Z,6.90
2018-03-21T03:52:27.051Z,6.63
2018-03-21T03:57:10.425Z,7.47
2018-03-21T04:01:53.808Z,8.20
2018-03-21T04:06:37.126Z,7.67
2018-03-21T04:11:20.423Z,7.53
2018-03-21T04:16:03.753Z,8.33
2018-03-21T04:20:47.162Z,8.27
2018-03-21T04:25:30.531Z,11.30
2018-03-21T04:30:14.691Z,9.10
2018-03-21T04:34:57.971Z,7.57
2018-03-21T04:39:41.381Z,11.07
2018-03-21T04:44:24.761Z,9.87
2018-03-21T04:49:08.306Z,9.80
2018-03-21T04:53:51.675Z,12.23
2018-03-21T04:58:35.030Z,10.80
2018-03-21T05:03:18.454Z,9.00
2018-03-21T05:08:01.804Z,10.90
2018-03-21T05:12:45.212Z,12.40
2018-03-21T05:17:28.531Z,9.80
2018-03-21T05:22:12.673Z,9.07
2018-03-21T05:26:56.796Z,12.93
2018-03-21T05:31:40.238Z,13.87
2018-03-21T05:36:23.786Z,14.50
2018-03-21T05:41:07.326Z,13.67
2018-03-21T05:45:50.709Z,11.80
2018-03-21T05:50:34.962Z,10.60
2018-03-21T05:55:18.487Z,12.53
2018-03-21T06:00:02.823Z,10.10
2018-03-21T06:04:46.977Z,10.60
2018-03-21T06:09:30.350Z,11.20
2018-03-21T06:14:13.765Z,13.30
2018-03-21T06:18:57.168Z,11.97
2018-03-21T06:23:41.377Z,9.47
2018-03-21T06:28:24.726Z,10.93
2018-03-21T06:33:08.153Z,9.30
2018-03-21T06:37:51.609Z,8.83
2018-03-21T06:42:35.177Z,10.23
2018-03-21T06:47:18.585Z,11.87
2018-03-21T06:52:02.000Z,9.70
2018-03-21T06:56:45.362Z,11.47
2018-03-21T07:01:28.747Z,8.37
2018-03-21T07:06:12.135Z,9.20
2018-03-21T07:10:55.526Z,10.03
2018-03-21T07:15:51.367Z,8.83
2018-03-21T07:20:34.781Z,7.83
2018-03-21T07:25:18.124Z,8.50
2018-03-21T07:30:01.517Z,9.60
2018-03-21T07:34:44.882Z,9.60
2018-03-21T07:39:28.384Z,10.60
2018-03-21T07:44:12.488Z,11.33
2018-03-21T07:48:55.865Z,9.07
2018-03-21T07:53:39.173Z,8.80
2018-03-21T07:58:22.592Z,9.67
2018-03-21T08:03:06.005Z,9.00
2018-03-21T08:07:49.331Z,8.93
2018-03-21T08:12:32.747Z,8.87
2018-03-21T08:17:16.155Z,7.33
2018-03-21T08:21:59.548Z,6.90
2018-03-21T08:26:42.947Z,9.60
2018-03-21T08:36:44.416Z,8.53
2018-03-21T08:41:28.601Z,6.37
2018-03-21T08:46:12.013Z,7.70
2018-03-21T08:50:56.133Z,8.80
2018-03-21T08:55:39.609Z,8.27
2018-03-21T09:00:23.740Z,8.23
2018-03-21T09:05:07.075Z,8.10
2018-03-21T09:09:50.437Z,5.50
2018-03-21T09:14:33.802Z,5.80
2018-03-21T09:19:17.923Z,6.73
2018-03-21T09:24:01.392Z,5.60
2018-03-21T09:28:45.612Z,5.40
2018-03-21T09:33:28.984Z,7.50
2018-03-21T09:38:12.398Z,9.00
2018-03-21T09:42:55.836Z,5.27
2018-03-21T09:47:39.308Z,5.60
2018-03-21T09:52:22.762Z,6.07
2018-03-21T09:57:06.333Z,5.23
2018-03-21T10:01:50.549Z,7.33
2018-03-21T10:06:34.824Z,4.93
2018-03-21T10:11:18.306Z,3.37
2018-03-21T10:16:01.686Z,4.63
2018-03-21T10:20:45.146Z,5.30
2018-03-21T10:25:30.428Z,5.70
2018-03-21T10:41:22.446Z,4.03
2018-03-21T10:46:07.303Z,4.73
2018-03-21T10:51:14.795Z,5.03
2018-03-21T10:56:00.334Z,5.03
2018-03-21T11:00:44.677Z,4.83
2018-03-21T11:05:30.960Z,4.67
2018-03-21T11:10:17.205Z,4.60
2018-03-21T11:15:00.872Z,4.13
2018-03-21T11:19:45.130Z,5.90
2018-03-21T11:24:29.587Z,4.93
2018-03-21T11:29:13.103Z,5.90
2018-03-21T11:33:56.683Z,3.17
2018-03-21T11:38:40.178Z,5.23
2018-03-21T11:43:23.603Z,3.03
2018-03-21T11:53:23.819Z,2.93
2018-03-21T11:58:08.320Z,3.80
2018-03-21T12:02:52.492Z,3.40
2018-03-21T12:13:01.857Z,4.47
2018-03-21T12:17:45.247Z,3.33
2018-03-21T12:22:29.417Z,5.77
2018-03-21T12:27:18.494Z,2.47
2018-03-21T12:37:34.296Z,2.50
2018-03-21T12:52:53.748Z,3.73
2018-03-21T12:57:45.272Z,5.03
2018-03-21T13:02:30.264Z,5.07
2018-03-21T13:07:13.881Z,2.10
2018-03-21T13:11:57.416Z,3.13
2018-03-21T13:16:41.189Z,2.63
2018-03-21T13:21:24.744Z,1.33
2018-03-21T13:26:08.220Z,3.70
2018-03-21T13:30:51.614Z,4.43
2018-03-21T13:35:35.046Z,1.60
2018-03-21T13:40:20.101Z,4.83
2018-03-21T13:45:04.304Z,4.17
2018-03-21T13:49:47.762Z,2.70
2018-03-21T13:54:32.880Z,3.47
2018-03-21T13:59:17.566Z,3.23
2018-03-21T14:04:02.940Z,2.63
2018-03-21T14:08:46.508Z,5.23
2018-03-21T14:13:30.948Z,3.57
2018-03-21T14:18:15.455Z,2.40
2018-03-21T14:22:58.872Z,4.67
2018-03-21T14:27:56.163Z,4.63
2018-03-21T14:32:42.235Z,2.50
2018-03-21T14:37:25.607Z,1.77
2018-03-21T14:42:09.839Z,2.90
2018-03-21T14:46:53.237Z,1.57
2018-03-21T14:51:36.672Z,1.47
2018-03-21T14:56:20.105Z,4.03
2018-03-21T15:01:03.543Z,1.43
2018-03-21T15:05:46.975Z,1.40
2018-03-21T15:10:30.376Z,3.70
2018-03-21T15:15:13.710Z,2.60
2018-03-21T15:19:57.143Z,3.03
2018-03-21T15:24:40.590Z,5.63
2018-03-21T15:29:24.015Z,3.00
2018-03-21T15:34:07.441Z,2.17
2018-03-21T15:38:50.803Z,2.40
2018-03-21T15:43:36.835Z,4.20
2018-03-21T15:48:20.234Z,4.67
2018-03-21T15:53:04.246Z,3.73
2018-03-21T15:57:47.620Z,3.63
2018-03-21T16:02:31.033Z,4.30
2018-03-21T16:07:14.405Z,2.43
2018-03-21T16:11:57.875Z,2.60
2018-03-21T16:21:58.072Z,2.83
2018-03-21T16:26:41.472Z,4.83
2018-03-21T16:31:37.448Z,4.60
2018-03-21T16:36:21.103Z,2.90
2018-03-21T16:41:05.292Z,3.83
2018-03-21T16:45:49.718Z,4.33
2018-03-21T16:50:36.330Z,5.43
2018-03-21T16:55:19.838Z,3.67
2018-03-21T17:05:16.358Z,5.83
2018-03-21T17:09:59.772Z,4.10
2018-03-21T17:14:56.543Z,4.77
2018-03-21T17:19:40.019Z,4.57
2018-03-21T17:24:24.432Z,4.43
2018-03-21T17:29:07.794Z,6.60
2018-03-21T17:33:51.382Z,23.30
2018-03-21T17:38:34.762Z,8.30
2018-03-21T17:43:18.122Z,5.27
2018-03-21T17:48:01.466Z,4.70
2018-03-21T17:52:44.885Z,4.60
2018-03-21T17:57:28.239Z,4.73
2018-03-21T18:02:11.617Z,7.13
2018-03-21T18:06:55.772Z,6.30
2018-03-21T18:11:39.260Z,6.43
2018-03-21T18:16:22.667Z,4.63
2018-03-21T18:21:08.117Z,4.67
2018-03-21T18:25:54.320Z,6.23
2018-03-21T18:30:37.621Z,6.60
2018-03-21T18:35:21.001Z,4.53
2018-03-21T18:40:04.315Z,3.73
2018-03-21T18:44:47.778Z,5.97
2018-03-21T18:49:31.161Z,5.50
2018-03-21T18:54:14.656Z,5.73
2018-03-21T18:58:58.023Z,5.93
2018-03-21T19:03:41.387Z,4.97
2018-03-21T19:08:24.724Z,3.87
2018-03-21T19:13:08.081Z,5.60
2018-03-21T19:17:51.454Z,4.13
2018-03-21T19:22:34.797Z,3.27
2018-03-21T19:27:18.416Z,4.50
2018-03-21T19:32:02.480Z,2.60
2018-03-21T19:36:45.884Z,4.03
2018-03-21T19:41:30.066Z,3.30
2018-03-21T19:46:14.172Z,4.23
2018-03-21T19:50:57.630Z,3.87
2018-03-21T19:55:40.951Z,3.90
2018-03-21T20:00:24.387Z,4.53
2018-03-21T20:05:07.785Z,4.43
2018-03-21T20:09:51.187Z,3.00
2018-03-21T20:14:35.280Z,5.20
2018-03-21T20:19:19.510Z,3.00
2018-03-21T20:24:02.886Z,2.53
2018-03-21T20:28:47.017Z,3.30
2018-03-21T20:33:30.348Z,3.80
2018-03-21T20:38:13.790Z,4.37
2018-03-21T20:42:57.149Z,3.67
2018-03-21T20:47:43.264Z,5.73
2018-03-21T20:52:26.630Z,4.23
2018-03-21T20:57:10.731Z,5.13
2018-03-21T21:01:54.081Z,3.10
2018-03-21T21:06:37.465Z,3.83
2018-03-21T21:11:21.600Z,5.10
2018-03-21T21:16:04.898Z,3.10
2018-03-21T21:20:48.296Z,4.07
2018-03-21T21:25:33.080Z,2.40
2018-03-21T21:30:17.188Z,3.90
2018-03-21T21:35:00.529Z,2.60
2018-03-21T21:39:43.862Z,3.60
2018-03-21T21:44:27.252Z,2.03
2018-03-21T21:49:11.351Z,2.47
2018-03-21T21:53:54.723Z,3.20
2018-03-21T21:58:38.033Z,3.33
2018-03-21T22:03:21.384Z,3.57
2018-03-21T22:08:04.711Z,3.27
2018-03-21T22:12:48.074Z,2.70
2018-03-21T22:17:31.352Z,2.33
2018-03-21T22:22:15.443Z,2.37
2018-03-21T22:26:58.787Z,2.33
2018-03-21T22:31:42.099Z,2.47
2018-03-21T22:36:26.203Z,3.10
2018-03-21T22:41:10.530Z,2.43
2018-03-21T22:45:57.794Z,3.33
2018-03-21T22:50:41.662Z,3.63
2018-03-21T22:55:25.472Z,2.80
2018-03-21T23:00:12.895Z,2.67
2018-03-21T23:05:01.978Z,4.57
2018-03-21T23:09:48.421Z,2.83
2018-03-21T23:14:32.884Z,4.33
2018-03-21T23:19:18.261Z,4.03
2018-03-21T23:24:01.880Z,2.40
2018-03-21T23:28:46.440Z,2.93
2018-03-21T23:33:30.191Z,2.47
2018-03-21T23:38:15.833Z,2.70
2018-03-21T23:43:03.431Z,3.00
2018-03-21T23:47:47.879Z,4.23
2018-03-21T23:52:33.015Z,2.30
2018-03-21T23:57:17.902Z,2.57
